Time;durP1;ratioP1;P1;durP2;ratioP2;P2;SDS_P1;SDS_P2;PMS_P1;PMS_P2;Temp;Humidity;BMP_temperature;BMP_pressure;BME280_temperature;BME280_humidity;BME280_pressure;Samples;Min_cycle;Max_cycle;Signal;HPM_P1;HPM_P2
2022/01/09 00:00:18;;;;;;;;;;;;;;;7.52;32.35;98466.53;4480833;32;34090;-88
2022/01/09 00:02:48;;;;;;;;;;;;;;;7.47;32.41;98462.19;4481383;32;34323;-89
2022/01/09 00:05:15;;;;;;;;;;;;;;;7.65;32.33;98465.00;4480822;32;34997;-85
2022/01/09 00:07:43;;;;;;;;;;;;;;;7.30;32.81;98461.94;4481346;32;33854;-87
2022/01/09 00:10:11;;;;;;;;;;;;;;;7.24;33.02;98462.72;4481912;32;34917;-90
2022/01/09 00:12:38;;;;;;;;;;;;;;;7.07;32.98;98449.56;4481635;32;34392;-89
2022/01/09 00:15:06;;;;;;;;;;;;;;;7.17;32.79;98458.31;4481305;32;33876;-89
2022/01/09 00:17:33;;;;;;;;;;;;;;;7.31;32.78;98454.25;4481348;32;33381;-90
2022/01/09 00:20:00;;;;;;;;;;;;;;;7.17;33.19;98448.00;4482096;32;34137;-90
2022/01/09 00:22:42;;;;;;;;;;;;;;;7.26;32.86;98448.13;4480492;32;34452;-88
2022/01/09 00:25:10;;;;;;;;;;;;;;;7.16;33.05;98437.66;4481030;32;33845;-89
2022/01/09 00:27:37;;;;;;;;;;;;;;;7.25;33.01;98428.34;4480731;32;33210;-89
2022/01/09 00:30:05;;;;;;;;;;;;;;;7.31;33.06;98420.72;4480412;32;35139;-90
2022/01/09 00:32:33;;;;;;;;;;;;;;;7.29;33.22;98413.81;4483769;32;35238;-89
2022/01/09 00:35:00;;;;;;;;;;;;;;;7.39;33.01;98410.50;4482463;32;34386;-90
2022/01/09 00:37:27;;;;;;;;;;;;;;;7.44;33.05;98418.28;4482629;31;33340;-90
2022/01/09 00:39:55;;;;;;;;;;;;;;;7.40;32.97;98419.09;4482706;31;34753;-87
2022/01/09 00:42:22;;;;;;;;;;;;;;;7.46;32.82;98416.59;4482517;32;34205;-88
2022/01/09 00:44:49;;;;;;;;;;;;;;;7.39;32.87;98415.66;4483588;32;34003;-89
2022/01/09 00:47:16;;;;;;;;;;;;;;;7.40;33.25;98411.38;4482158;32;33719;-89
2022/01/09 00:49:43;;;;;;;;;;;;;;;7.40;33.09;98409.66;4483655;32;34705;-89
2022/01/09 00:52:11;;;;;;;;;;;;;;;7.53;33.05;98408.94;4483588;32;34512;-89
2022/01/09 00:54:38;;;;;;;;;;;;;;;7.51;33.01;98402.91;4483261;32;33742;-89
2022/01/09 00:57:06;;;;;;;;;;;;;;;7.51;32.98;98396.91;4483572;31;33340;-87
2022/01/09 00:59:33;;;;;;;;;;;;;;;7.62;32.89;98392.75;4476523;32;33394;-90
2022/01/09 01:02:00;;;;;;;;;;;;;;;7.17;33.78;98390.44;4483318;32;34958;-89
2022/01/09 01:04:28;;;;;;;;;;;;;;;7.21;33.91;98390.50;4483219;32;35019;-89
2022/01/09 01:06:55;;;;;;;;;;;;;;;7.06;34.26;98391.16;4483675;32;33081;-90
2022/01/09 01:09:24;;;;;;;;;;;;;;;7.40;33.84;98385.59;4483526;32;35170;-87
2022/01/09 01:11:52;;;;;;;;;;;;;;;7.59;33.71;98382.38;4483601;32;35203;-88
2022/01/09 01:14:22;;;;;;;;;;;;;;;7.52;33.75;98368.53;4483295;32;34285;-90
2022/01/09 01:16:50;;;;;;;;;;;;;;;7.59;33.83;98366.03;4483705;32;33270;-90
2022/01/09 01:19:17;;;;;;;;;;;;;;;7.95;33.27;98368.13;4482110;32;34226;-89
2022/01/09 01:21:44;;;;;;;;;;;;;;;7.77;33.50;98361.97;4483358;32;34269;-90
2022/01/09 01:24:12;;;;;;;;;;;;;;;7.88;33.60;98354.34;4483641;32;34229;-87
2022/01/09 01:26:39;;;;;;;;;;;;;;;7.86;33.65;98350.00;4483655;32;33047;-87
2022/01/09 01:29:06;;;;;;;;;;;;;;;7.96;33.43;98344.09;4483324;32;34300;-89
2022/01/09 01:31:33;;;;;;;;;;;;;;;8.04;33.22;98340.72;4483287;32;34416;-90
2022/01/09 01:34:01;;;;;;;;;;;;;;;8.13;32.94;98333.91;4483476;32;34213;-87
2022/01/09 01:36:28;;;;;;;;;;;;;;;7.86;33.58;98335.38;4483116;31;33454;-90
2022/01/09 01:38:55;;;;;;;;;;;;;;;7.73;33.83;98333.53;4482666;32;34895;-89
2022/01/09 01:41:22;;;;;;;;;;;;;;;7.52;34.06;98329.00;4482212;32;33378;-89
2022/01/09 01:43:49;;;;;;;;;;;;;;;7.66;33.74;98331.72;4483402;32;33255;-86
2022/01/09 01:46:17;;;;;;;;;;;;;;;7.80;33.34;98325.88;4483421;32;34187;-87
2022/01/09 01:48:44;;;;;;;;;;;;;;;7.87;33.36;98318.16;4483259;32;34616;-90
2022/01/09 01:51:11;;;;;;;;;;;;;;;7.59;33.59;98315.31;4482915;32;34268;-89
2022/01/09 01:53:39;;;;;;;;;;;;;;;7.60;33.49;98318.75;4481149;32;35583;-90
2022/01/09 01:56:07;;;;;;;;;;;;;;;7.63;33.25;98316.22;4481776;31;32947;-87
2022/01/09 01:58:35;;;;;;;;;;;;;;;7.40;33.61;98323.69;4483692;32;33907;-90
2022/01/09 02:01:03;;;;;;;;;;;;;;;7.51;33.36;98316.94;4482558;32;34414;-89
2022/01/09 02:03:30;;;;;;;;;;;;;;;6.90;34.54;98317.06;4482818;32;34574;-88
2022/01/09 02:05:58;;;;;;;;;;;;;;;7.01;34.49;98304.31;4469975;32;33768;-89
2022/01/09 02:08:25;;;;;;;;;;;;;;;7.24;34.15;98307.19;4476243;32;34286;-89
2022/01/09 02:10:52;;;;;;;;;;;;;;;7.21;33.99;98300.25;4482966;32;34428;-88
2022/01/09 02:13:20;;;;;;;;;;;;;;;6.77;34.74;98297.97;4482733;32;34833;-88
2022/01/09 02:15:48;;;;;;;;;;;;;;;6.77;34.74;98291.94;4483309;32;33910;-90
2022/01/09 02:18:16;;;;;;;;;;;;;;;7.00;34.64;98294.84;4483205;32;34105;-88
2022/01/09 02:20:43;;;;;;;;;;;;;;;7.04;34.51;98289.72;4483264;32;34404;-89
2022/01/09 02:23:11;;;;;;;;;;;;;;;7.17;33.95;98290.75;4481377;32;34742;-88
2022/01/09 02:25:41;;;;;;;;;;;;;;;7.30;33.57;98286.59;4478240;32;32987;-89
2022/01/09 02:28:09;;;;;;;;;;;;;;;7.25;33.44;98283.97;4483354;32;34818;-89
2022/01/09 02:30:36;;;;;;;;;;;;;;;7.24;33.52;98286.56;4482775;32;34103;-89
2022/01/09 02:33:04;;;;;;;;;;;;;;;7.14;33.65;98280.41;4483142;32;34700;-88
2022/01/09 02:35:31;;;;;;;;;;;;;;;7.02;33.96;98283.72;4482811;32;33551;-89
2022/01/09 02:37:59;;;;;;;;;;;;;;;6.79;34.70;98283.41;4482783;32;35035;-88
2022/01/09 02:40:26;;;;;;;;;;;;;;;6.15;35.83;98285.03;4482920;32;34494;-89
2022/01/09 02:42:53;;;;;;;;;;;;;;;6.42;35.69;98281.16;4481811;32;34456;-89
2022/01/09 02:45:23;;;;;;;;;;;;;;;6.66;35.26;98271.19;4483032;31;33567;-89
2022/01/09 02:47:51;;;;;;;;;;;;;;;6.82;34.91;98264.56;4481385;32;34358;-88
2022/01/09 02:52:52;;;;;;;;;;;;;;;6.41;35.45;98270.00;4482699;32;33950;-87
2022/01/09 02:55:20;;;;;;;;;;;;;;;6.27;35.79;98277.50;4482091;32;33959;-89
2022/01/09 02:57:48;;;;;;;;;;;;;;;6.30;35.93;98267.25;4482587;32;34160;-90
2022/01/09 03:00:19;;;;;;;;;;;;;;;6.48;35.63;98264.09;4482219;32;34160;-89
2022/01/09 03:02:47;;;;;;;;;;;;;;;6.68;35.35;98264.38;4482542;32;34722;-89
2022/01/09 03:05:14;;;;;;;;;;;;;;;6.33;36.21;98263.87;4482334;32;33656;-89
2022/01/09 03:07:42;;;;;;;;;;;;;;;6.14;36.61;98259.25;4483012;32;34328;-87
2022/01/09 03:10:10;;;;;;;;;;;;;;;6.33;36.12;98254.44;4482117;32;35351;-88
2022/01/09 03:12:37;;;;;;;;;;;;;;;6.34;36.14;98255.28;4480481;32;33997;-88
2022/01/09 03:15:05;;;;;;;;;;;;;;;6.20;36.42;98252.50;4482935;32;33414;-88
2022/01/09 03:17:33;;;;;;;;;;;;;;;6.47;35.80;98246.91;4481188;32;34059;-89
2022/01/09 03:20:00;;;;;;;;;;;;;;;6.65;35.39;98230.84;4481365;32;34480;-89
2022/01/09 03:22:27;;;;;;;;;;;;;;;6.72;35.08;98237.81;4481973;32;34115;-87
2022/01/09 03:24:55;;;;;;;;;;;;;;;6.78;34.72;98227.59;4482371;31;34231;-87
2022/01/09 03:27:22;;;;;;;;;;;;;;;6.66;34.89;98229.12;4482247;32;33876;-89
2022/01/09 03:29:49;;;;;;;;;;;;;;;6.88;34.55;98230.28;4480968;32;34505;-88
2022/01/09 03:32:17;;;;;;;;;;;;;;;6.67;34.84;98236.88;4482620;32;34327;-89
2022/01/09 03:34:44;;;;;;;;;;;;;;;6.74;34.45;98228.41;4482625;32;33290;-89
2022/01/09 03:37:12;;;;;;;;;;;;;;;6.74;34.34;98227.50;4482259;32;34070;-88
2022/01/09 03:39:43;;;;;;;;;;;;;;;6.28;35.15;98227.75;4481228;32;33920;-89
2022/01/09 03:42:10;;;;;;;;;;;;;;;6.57;34.74;98240.19;4482435;32;34648;-89
2022/01/09 03:44:37;;;;;;;;;;;;;;;6.30;35.64;98236.38;4482297;32;34221;-87
2022/01/09 03:47:05;;;;;;;;;;;;;;;6.30;35.78;98236.38;4482244;32;33973;-89
2022/01/09 03:49:32;;;;;;;;;;;;;;;6.31;35.75;98243.25;4482663;32;35272;-87
2022/01/09 03:52:00;;;;;;;;;;;;;;;6.20;35.83;98233.63;4482139;32;33011;-88
2022/01/09 03:54:28;;;;;;;;;;;;;;;6.27;36.02;98238.03;4481925;32;33772;-89
2022/01/09 03:56:55;;;;;;;;;;;;;;;6.33;35.64;98241.56;4480089;32;34863;-89
2022/01/09 03:59:22;;;;;;;;;;;;;;;6.28;35.87;98238.03;4481338;32;35062;-89
2022/01/09 04:01:51;;;;;;;;;;;;;;;6.17;36.13;98233.56;4481655;32;34288;-89
2022/01/09 04:04:19;;;;;;;;;;;;;;;6.17;36.07;98219.00;4478905;32;33272;-88
2022/01/09 04:06:49;;;;;;;;;;;;;;;6.40;35.13;98216.75;4483387;32;34737;-89
2022/01/09 04:09:50;;;;;;;;;;;;;;;6.55;34.70;98201.53;4477879;32;35217;-89
2022/01/09 04:12:15;;;;;;;;;;;;;;;6.28;35.29;98207.16;4482665;31;34391;-89
2022/01/09 04:14:43;;;;;;;;;;;;;;;6.28;35.11;98198.56;4479671;32;33275;-89
2022/01/09 04:17:20;;;;;;;;;;;;;;;6.39;34.88;98191.00;4484179;32;34212;-88
2022/01/09 04:19:47;;;;;;;;;;;;;;;6.41;34.49;98195.34;4484275;32;34293;-88
2022/01/09 04:22:15;;;;;;;;;;;;;;;6.34;34.43;98196.94;4484126;32;34131;-89
2022/01/09 04:24:42;;;;;;;;;;;;;;;6.10;35.21;98194.03;4482538;32;34108;-88
2022/01/09 04:27:10;;;;;;;;;;;;;;;6.02;35.29;98193.03;4484449;32;34712;-89
2022/01/09 04:29:37;;;;;;;;;;;;;;;6.43;34.88;98198.78;4483506;31;34390;-89
2022/01/09 04:32:05;;;;;;;;;;;;;;;6.37;34.81;98187.56;4484304;31;34065;-89
2022/01/09 04:34:32;;;;;;;;;;;;;;;6.37;34.57;98191.00;4483753;32;34140;-89
2022/01/09 04:37:00;;;;;;;;;;;;;;;6.22;34.84;98196.78;4483996;32;34210;-90
2022/01/09 04:39:28;;;;;;;;;;;;;;;6.06;34.90;98190.56;4483239;31;35346;-89
2022/01/09 04:41:55;;;;;;;;;;;;;;;6.20;34.52;98184.72;4484056;32;34258;-90
2022/01/09 04:44:23;;;;;;;;;;;;;;;6.12;34.48;98183.75;4483947;32;34428;-89
2022/01/09 04:47:04;;;;;;;;;;;;;;;5.98;34.85;98186.13;4482362;32;33717;-89
2022/01/09 04:49:37;;;;;;;;;;;;;;;5.55;35.89;98186.25;4483748;32;34426;-88
2022/01/09 04:52:07;;;;;;;;;;;;;;;6.02;35.34;98190.47;4483467;32;34021;-88
2022/01/09 04:54:34;;;;;;;;;;;;;;;6.14;35.07;98182.94;4482002;32;33645;-89
2022/01/09 04:57:02;;;;;;;;;;;;;;;6.07;35.31;98191.41;4484057;32;34104;-89
2022/01/09 04:59:29;;;;;;;;;;;;;;;6.11;35.26;98185.47;4482104;32;34514;-90
2022/01/09 05:01:56;;;;;;;;;;;;;;;5.93;35.55;98182.62;4483565;32;34841;-89
2022/01/09 05:04:23;;;;;;;;;;;;;;;5.99;35.49;98181.00;4481882;32;32818;-88
2022/01/09 05:06:51;;;;;;;;;;;;;;;6.02;35.22;98178.50;4483475;32;35004;-88
2022/01/09 05:09:18;;;;;;;;;;;;;;;6.01;35.52;98181.03;4483535;32;33721;-88
2022/01/09 05:11:45;;;;;;;;;;;;;;;5.77;36.18;98182.34;4484013;32;33957;-89
2022/01/09 05:14:13;;;;;;;;;;;;;;;6.10;35.50;98183.75;4483439;32;33036;-89
2022/01/09 05:16:44;;;;;;;;;;;;;;;6.04;35.51;98186.22;4483634;32;33903;-88
2022/01/09 05:19:18;;;;;;;;;;;;;;;6.23;34.66;98185.63;4483583;32;34406;-88
2022/01/09 05:21:46;;;;;;;;;;;;;;;6.32;34.01;98178.03;4483361;32;34229;-88
2022/01/09 05:24:13;;;;;;;;;;;;;;;6.27;34.07;98189.13;4481758;32;33204;-88
2022/01/09 05:26:40;;;;;;;;;;;;;;;6.03;34.60;98179.34;4482002;32;35003;-88
2022/01/09 05:29:08;;;;;;;;;;;;;;;5.97;34.75;98185.25;4483769;32;34427;-88
2022/01/09 05:31:35;;;;;;;;;;;;;;;5.79;35.38;98200.38;4482779;32;35193;-88
2022/01/09 05:34:02;;;;;;;;;;;;;;;5.86;35.28;98179.91;4483647;32;33397;-88
2022/01/09 05:36:29;;;;;;;;;;;;;;;5.91;35.25;98174.84;4483569;32;33836;-88
2022/01/09 05:38:56;;;;;;;;;;;;;;;6.09;34.87;98176.84;4483405;31;34848;-88
2022/01/09 05:41:24;;;;;;;;;;;;;;;5.91;35.24;98179.09;4483278;32;33760;-88
2022/01/09 05:43:51;;;;;;;;;;;;;;;5.84;35.37;98173.88;4481726;32;33616;-87
2022/01/09 05:46:18;;;;;;;;;;;;;;;5.91;35.29;98176.53;4482421;32;34283;-88
2022/01/09 05:48:45;;;;;;;;;;;;;;;5.97;35.00;98180.09;4483819;32;34556;-86
2022/01/09 05:51:13;;;;;;;;;;;;;;;6.24;34.43;98171.06;4483170;32;34036;-88
2022/01/09 05:53:40;;;;;;;;;;;;;;;6.22;34.22;98165.91;4483226;32;33328;-87
2022/01/09 05:56:07;;;;;;;;;;;;;;;6.06;34.29;98161.34;4483405;32;34330;-88
2022/01/09 05:58:35;;;;;;;;;;;;;;;5.95;34.42;98160.38;4482883;32;35173;-88
2022/01/09 06:01:03;;;;;;;;;;;;;;;6.07;34.08;98157.97;4482653;32;34896;-86
2022/01/09 06:03:30;;;;;;;;;;;;;;;5.94;34.19;98163.75;4481292;32;33243;-88
2022/01/09 06:05:58;;;;;;;;;;;;;;;6.02;34.01;98162.16;4482654;32;34215;-89
2022/01/09 06:08:25;;;;;;;;;;;;;;;5.85;34.38;98164.47;4483783;32;34422;-89
2022/01/09 06:10:52;;;;;;;;;;;;;;;5.88;34.48;98163.66;4481554;32;34733;-88
2022/01/09 06:13:19;;;;;;;;;;;;;;;6.02;34.00;98157.91;4483399;32;32871;-89
2022/01/09 06:15:46;;;;;;;;;;;;;;;6.05;33.76;98163.06;4483330;32;33588;-88
2022/01/09 06:18:17;;;;;;;;;;;;;;;6.12;33.53;98156.31;4483125;32;35034;-88
2022/01/09 06:20:44;;;;;;;;;;;;;;;6.05;33.68;98164.78;4479400;32;33919;-89
2022/01/09 06:23:11;;;;;;;;;;;;;;;6.15;33.58;98158.06;4483333;31;33238;-88
2022/01/09 06:25:40;;;;;;;;;;;;;;;6.06;33.91;98153.62;4482690;32;33837;-89
2022/01/09 06:28:07;;;;;;;;;;;;;;;5.92;34.27;98161.19;4480976;32;34413;-88
2022/01/09 06:30:34;;;;;;;;;;;;;;;5.94;34.02;98153.47;4481771;32;34912;-88
2022/01/09 06:33:02;;;;;;;;;;;;;;;5.70;34.52;98159.09;4482696;32;33393;-89
2022/01/09 06:35:29;;;;;;;;;;;;;;;5.62;34.81;98171.81;4483199;32;33956;-88
2022/01/09 06:37:56;;;;;;;;;;;;;;;5.44;35.38;98171.50;4483124;32;34091;-88
2022/01/09 06:40:24;;;;;;;;;;;;;;;5.49;35.71;98177.56;4483148;31;34967;-88
2022/01/09 06:42:52;;;;;;;;;;;;;;;5.72;35.43;98163.41;4482740;32;33500;-87
2022/01/09 06:45:21;;;;;;;;;;;;;;;5.88;35.04;98174.81;4482693;32;32605;-89
2022/01/09 06:47:49;;;;;;;;;;;;;;;5.94;34.72;98168.91;4482964;32;34931;-89
2022/01/09 06:50:16;;;;;;;;;;;;;;;6.03;34.35;98163.91;4483099;32;33835;-87
2022/01/09 06:52:43;;;;;;;;;;;;;;;5.95;34.05;98156.09;4482334;32;32841;-89
2022/01/09 06:55:11;;;;;;;;;;;;;;;6.06;33.93;98163.94;4483128;32;34721;-86
2022/01/09 06:57:39;;;;;;;;;;;;;;;5.88;34.33;98161.09;4482451;32;35216;-89
2022/01/09 07:00:10;;;;;;;;;;;;;;;5.77;34.61;98166.06;4482733;32;35103;-89
2022/01/09 07:02:37;;;;;;;;;;;;;;;5.79;34.66;98160.06;4482493;32;33968;-89
2022/01/09 07:05:05;;;;;;;;;;;;;;;5.71;35.10;98176.22;4482231;32;33648;-89
2022/01/09 07:07:32;;;;;;;;;;;;;;;5.69;35.36;98171.09;4482517;32;33929;-88
2022/01/09 07:09:59;;;;;;;;;;;;;;;5.62;35.62;98174.38;4482490;32;35088;-88
2022/01/09 07:12:27;;;;;;;;;;;;;;;5.74;35.50;98172.00;4482311;32;34065;-89
2022/01/09 07:14:54;;;;;;;;;;;;;;;5.91;35.24;98174.84;4482640;32;34659;-89
2022/01/09 07:17:21;;;;;;;;;;;;;;;5.90;35.05;98177.38;4482661;32;34420;-89
2022/01/09 07:19:48;;;;;;;;;;;;;;;6.02;34.62;98168.19;4482651;32;34120;-89
2022/01/09 07:22:15;;;;;;;;;;;;;;;6.00;34.76;98176.72;4482955;32;33342;-88
2022/01/09 07:24:43;;;;;;;;;;;;;;;5.91;35.16;98176.53;4481932;32;35065;-89
2022/01/09 07:27:11;;;;;;;;;;;;;;;5.89;35.59;98175.66;4482926;32;34335;-89
2022/01/09 07:29:38;;;;;;;;;;;;;;;5.90;35.63;98173.09;4482535;32;34080;-88
2022/01/09 07:32:05;;;;;;;;;;;;;;;5.77;35.98;98172.06;4473332;32;33556;-88
2022/01/09 07:34:33;;;;;;;;;;;;;;;5.87;35.81;98175.62;4482726;32;33571;-89
2022/01/09 07:37:00;;;;;;;;;;;;;;;6.03;35.62;98164.78;4482664;32;34028;-89
2022/01/09 07:39:28;;;;;;;;;;;;;;;5.89;36.07;98161.09;4482259;31;33748;-89
2022/01/09 07:41:57;;;;;;;;;;;;;;;5.92;36.23;98155.13;4482064;32;33489;-89
2022/01/09 07:44:25;;;;;;;;;;;;;;;5.68;36.77;98153.91;4482272;32;33724;-89
2022/01/09 07:46:57;;;;;;;;;;;;;;;5.94;36.33;98156.03;4480699;32;34082;-89
2022/01/09 07:49:24;;;;;;;;;;;;;;;5.78;36.85;98153.22;4482580;32;34383;-89
2022/01/09 07:51:52;;;;;;;;;;;;;;;5.78;36.96;98153.22;4482156;32;33205;-88
2022/01/09 07:54:19;;;;;;;;;;;;;;;5.91;36.57;98150.81;4481830;32;33737;-89
2022/01/09 07:56:47;;;;;;;;;;;;;;;5.81;37.65;98153.25;4481939;32;34425;-89
2022/01/09 07:59:14;;;;;;;;;;;;;;;3.70;43.80;98169.66;4482070;32;35112;-89
2022/01/09 08:01:47;;;;;;;;;;;;;;;4.05;43.86;98173.06;4480966;32;33629;-88
2022/01/09 08:04:14;;;;;;;;;;;;;;;4.23;42.43;98171.72;4481839;32;34766;-89
2022/01/09 08:06:42;;;;;;;;;;;;;;;4.90;41.00;98178.25;4481851;32;34806;-87
2022/01/09 08:09:09;;;;;;;;;;;;;;;3.76;44.54;98174.09;4481900;32;34997;-89
2022/01/09 08:11:36;;;;;;;;;;;;;;;4.98;41.26;98165.56;4482296;32;33625;-88
2022/01/09 08:14:04;;;;;;;;;;;;;;;5.03;40.72;98164.78;4480971;32;34191;-88
2022/01/09 08:16:31;;;;;;;;;;;;;;;5.76;39.25;98148.91;4481419;32;35180;-89
2022/01/09 08:18:58;;;;;;;;;;;;;;;5.67;39.35;98152.19;4481866;32;35083;-89
2022/01/09 08:21:25;;;;;;;;;;;;;;;5.93;38.70;98147.47;4482157;32;34224;-89
2022/01/09 08:23:53;;;;;;;;;;;;;;;6.07;38.25;98145.97;4481562;32;34018;-89
2022/01/09 08:26:20;;;;;;;;;;;;;;;5.76;38.88;98148.91;4481833;32;35192;-89
2022/01/09 08:28:48;;;;;;;;;;;;;;;5.96;38.72;98149.22;4481463;32;34982;-89
2022/01/09 08:31:16;;;;;;;;;;;;;;;6.13;38.46;98146.88;4481413;32;33084;-89
2022/01/09 08:33:44;;;;;;;;;;;;;;;5.88;38.83;98158.50;4480723;32;34450;-88
2022/01/09 08:36:11;;;;;;;;;;;;;;;5.91;39.14;98155.97;4482050;32;33917;-89
2022/01/09 08:38:40;;;;;;;;;;;;;;;6.15;38.69;98160.66;4481555;31;34276;-89
2022/01/09 08:41:07;;;;;;;;;;;;;;;6.11;38.77;98162.31;4480499;32;34301;-90
2022/01/09 08:43:38;;;;;;;;;;;;;;;6.37;38.59;98159.25;4480044;32;34031;-89
2022/01/09 08:46:05;;;;;;;;;;;;;;;6.24;38.98;98168.47;4481190;32;34348;-88
2022/01/09 08:48:32;;;;;;;;;;;;;;;6.28;39.28;98170.25;4480287;32;34329;-89
2022/01/09 08:50:59;;;;;;;;;;;;;;;6.29;39.64;98160.00;4481490;32;34914;-86
2022/01/09 08:53:27;;;;;;;;;;;;;;;6.16;39.70;98159.78;4482780;32;33759;-88
2022/01/09 08:55:54;;;;;;;;;;;;;;;6.44;39.40;98161.03;4483803;32;35021;-88
2022/01/09 08:58:21;;;;;;;;;;;;;;;6.38;39.56;98163.53;4483853;32;34634;-89
2022/01/09 09:00:50;;;;;;;;;;;;;;;6.00;40.80;98159.56;4482865;32;33526;-87
2022/01/09 09:03:18;;;;;;;;;;;;;;;6.44;39.79;98161.91;4483673;32;35018;-88
2022/01/09 09:05:45;;;;;;;;;;;;;;;6.43;39.90;98164.44;4483978;32;35072;-88
2022/01/09 09:08:12;;;;;;;;;;;;;;;6.79;39.33;98159.75;4483994;32;34870;-88
2022/01/09 09:10:39;;;;;;;;;;;;;;;6.93;39.02;98157.34;4483482;32;33331;-87
2022/01/09 09:13:06;;;;;;;;;;;;;;;6.94;38.98;98158.22;4483971;32;34114;-88
2022/01/09 09:15:34;;;;;;;;;;;;;;;7.10;38.61;98165.25;4478110;32;34433;-87
2022/01/09 09:18:01;;;;;;;;;;;;;;;6.79;39.33;98164.06;4479306;32;34336;-88
2022/01/09 09:20:28;;;;;;;;;;;;;;;6.95;39.25;98162.50;4482936;32;33563;-88
2022/01/09 09:23:00;;;;;;;;;;;;;;;7.08;39.23;98182.38;4482443;32;33864;-88
2022/01/09 09:25:27;;;;;;;;;;;;;;;5.47;41.78;98192.13;4476987;32;35336;-89
2022/01/09 09:27:55;;;;;;;;;;;;;;;4.40;45.82;98190.94;4476817;32;35353;-88
2022/01/09 09:30:22;;;;;;;;;;;;;;;4.27;46.32;98191.47;4467728;32;31976;-87
2022/01/09 09:32:49;;;;;;;;;;;;;;;3.42;48.14;98189.50;4470178;32;34172;-86
2022/01/09 09:35:16;;;;;;;;;;;;;;;2.66;50.05;98192.59;4482836;32;35152;-85
2022/01/09 09:37:43;;;;;;;;;;;;;;;2.96;49.49;98202.81;4483181;32;34205;-85
2022/01/09 09:40:11;;;;;;;;;;;;;;;3.85;47.57;98198.22;4483133;31;34443;-86
2022/01/09 09:42:38;;;;;;;;;;;;;;;3.14;49.58;98197.28;4483133;32;34205;-85
2022/01/09 09:45:06;;;;;;;;;;;;;;;2.59;50.99;98199.22;4477863;32;33915;-86
2022/01/09 09:47:34;;;;;;;;;;;;;;;1.90;52.69;98211.63;4471855;32;33813;-86
2022/01/09 09:50:06;;;;;;;;;;;;;;;2.32;52.56;98201.00;4469876;32;34210;-86
2022/01/09 09:52:33;;;;;;;;;;;;;;;3.13;49.89;98196.44;4481721;32;34328;-85
2022/01/09 09:55:03;;;;;;;;;;;;;;;3.44;48.97;98197.22;4483593;32;35296;-86
2022/01/09 09:57:31;;;;;;;;;;;;;;;4.17;46.91;98187.87;4482065;32;35014;-83
2022/01/09 09:59:59;;;;;;;;;;;;;;;4.51;45.88;98188.56;4483112;32;33181;-87
2022/01/09 10:02:26;;;;;;;;;;;;;;;4.60;45.85;98193.91;4479762;32;34174;-88
2022/01/09 10:04:59;;;;;;;;;;;;;;;3.62;48.33;98202.81;4474024;32;34278;-87
2022/01/09 10:07:27;;;;;;;;;;;;;;;4.33;47.37;98200.19;4482032;32;34794;-90
2022/01/09 10:09:59;;;;;;;;;;;;;;;4.25;47.42;98206.84;4480348;32;33222;-89
2022/01/09 10:12:28;;;;;;;;;;;;;;;4.61;46.35;98200.75;4466680;32;34126;-87
2022/01/09 10:15:04;;;;;;;;;;;;;;;5.15;45.28;98205.25;4467563;32;34263;-89
2022/01/09 10:17:32;;;;;;;;;;;;;;;5.33;44.07;98200.44;4467624;32;34305;-89
2022/01/09 10:20:03;;;;;;;;;;;;;;;5.78;43.38;98203.78;4467998;32;33549;-90
2022/01/09 10:22:40;;;;;;;;;;;;;;;6.15;42.60;98200.13;4466140;32;33751;-90
2022/01/09 10:25:26;;;;;;;;;;;;;;;3.81;47.81;98205.81;4466582;32;34124;-91
2022/01/09 10:28:12;;;;;;;;;;;;;;;4.80;46.30;98202.00;4478987;32;33764;-87
2022/01/09 10:30:41;;;;;;;;;;;;;;;5.03;45.68;98189.59;4482423;32;33481;-87
2022/01/09 10:33:18;;;;;;;;;;;;;;;3.94;48.06;98191.59;4479536;32;34226;-90
2022/01/09 10:35:46;;;;;;;;;;;;;;;3.72;48.59;98198.78;4482804;32;34190;-86
2022/01/09 10:38:22;;;;;;;;;;;;;;;2.93;50.86;98187.37;4481593;31;34884;-85
2022/01/09 10:40:53;;;;;;;;;;;;;;;4.35;47.23;98183.09;4466031;32;33476;-86
2022/01/09 10:43:21;;;;;;;;;;;;;;;4.36;47.72;98171.16;4478449;32;33574;-87
2022/01/09 10:45:58;;;;;;;;;;;;;;;4.52;47.45;98177.50;4482313;32;34197;-85
2022/01/09 10:48:31;;;;;;;;;;;;;;;4.93;46.39;98165.47;4483209;32;34174;-86
2022/01/09 10:50:59;;;;;;;;;;;;;;;3.99;48.48;98161.81;4482717;32;33086;-88
2022/01/09 10:53:34;;;;;;;;;;;;;;;4.56;47.17;98153.59;4482731;32;33925;-86
2022/01/09 10:56:04;;;;;;;;;;;;;;;5.69;44.67;98150.50;4483162;32;34336;-87
2022/01/09 10:58:34;;;;;;;;;;;;;;;5.90;43.82;98154.22;4482103;32;33968;-86
2022/01/09 11:01:07;;;;;;;;;;;;;;;5.53;44.21;98158.78;4482770;31;33076;-85
2022/01/09 11:03:34;;;;;;;;;;;;;;;4.76;46.19;98149.72;4482652;32;35155;-84
2022/01/09 11:06:02;;;;;;;;;;;;;;;4.94;46.21;98153.50;4478730;32;34331;-85
2022/01/09 11:08:30;;;;;;;;;;;;;;;5.79;44.02;98139.50;4471381;32;33594;-88
2022/01/09 11:10:57;;;;;;;;;;;;;;;4.53;47.06;98149.28;4482627;32;34396;-86
2022/01/09 11:13:25;;;;;;;;;;;;;;;4.34;46.85;98148.03;4482387;32;34721;-86
2022/01/09 11:18:38;;;;;;;;;;;;;;;4.41;47.35;98140.47;4481498;32;34905;-86
2022/01/09 11:21:06;;;;;;;;;;;;;;;4.73;46.37;98144.53;4481519;32;33144;-86
2022/01/09 11:23:34;;;;;;;;;;;;;;;5.50;44.73;98138.19;4482122;32;34831;-84
2022/01/09 11:26:01;;;;;;;;;;;;;;;4.32;47.14;98144.59;4481287;32;34496;-86
2022/01/09 11:28:29;;;;;;;;;;;;;;;4.91;46.00;98149.16;4482869;32;33918;-84
2022/01/09 11:31:02;;;;;;;;;;;;;;;4.98;44.99;98150.13;4481632;32;33485;-85
2022/01/09 11:33:34;;;;;;;;;;;;;;;5.65;43.63;98143.59;4481460;32;34331;-84
2022/01/09 11:36:03;;;;;;;;;;;;;;;5.09;45.33;98144.34;4480544;32;34998;-85
2022/01/09 11:38:37;;;;;;;;;;;;;;;6.43;42.73;98141.28;4482524;32;33833;-85
2022/01/09 11:41:27;;;;;;;;;;;;;;;6.28;42.67;98140.22;4470007;32;33230;-87
2022/01/09 11:44:01;;;;;;;;;;;;;;;5.11;44.68;98142.69;4480405;32;34886;-86
2022/01/09 11:46:29;;;;;;;;;;;;;;;4.78;46.30;98142.06;4482672;32;34850;-86
2022/01/09 11:49:01;;;;;;;;;;;;;;;4.76;46.26;98138.59;4480881;32;34919;-85
2022/01/09 11:51:29;;;;;;;;;;;;;;;4.86;46.21;98130.22;4482162;32;33442;-86
2022/01/09 11:54:01;;;;;;;;;;;;;;;5.03;45.63;98128.81;4481003;32;34229;-86
2022/01/09 11:56:41;;;;;;;;;;;;;;;5.90;44.00;98129.38;4480888;32;34562;-84
2022/01/09 11:59:26;;;;;;;;;;;;;;;5.27;45.13;98132.69;4482117;32;34456;-85
2022/01/09 12:01:59;;;;;;;;;;;;;;;5.81;44.18;98127.53;4481825;32;32769;-84
2022/01/09 12:04:30;;;;;;;;;;;;;;;4.95;45.02;98116.69;4481884;32;34038;-87
2022/01/09 12:06:58;;;;;;;;;;;;;;;4.46;46.13;98126.03;4479672;32;34914;-86
2022/01/09 12:09:34;;;;;;;;;;;;;;;5.92;43.52;98104.59;4471534;32;35106;-86
2022/01/09 12:12:11;;;;;;;;;;;;;;;5.84;43.33;98095.87;4475064;32;34310;-85
2022/01/09 12:14:54;;;;;;;;;;;;;;;5.46;44.04;98103.00;4477306;32;34913;-85
2022/01/09 12:17:22;;;;;;;;;;;;;;;4.88;45.54;98111.44;4481744;32;33950;-87
2022/01/09 12:20:08;;;;;;;;;;;;;;;5.79;43.57;98095.78;4480482;32;34211;-88
2022/01/09 12:22:39;;;;;;;;;;;;;;;6.24;43.01;98093.84;4481559;32;32112;-88
2022/01/09 12:25:06;;;;;;;;;;;;;;;5.11;45.07;98095.56;4481889;32;33876;-88
2022/01/09 12:27:41;;;;;;;;;;;;;;;5.24;44.68;98092.38;4482281;32;34371;-86
2022/01/09 12:30:10;;;;;;;;;;;;;;;6.16;42.65;98088.59;4483557;32;33379;-88
2022/01/09 12:32:41;;;;;;;;;;;;;;;5.42;44.30;98088.34;4478836;32;33007;-86
2022/01/09 12:35:12;;;;;;;;;;;;;;;6.03;42.99;98090.16;4474898;32;33733;-87
2022/01/09 12:37:46;;;;;;;;;;;;;;;5.59;43.71;98098.06;4484047;32;34017;-88
2022/01/09 12:40:14;;;;;;;;;;;;;;;5.55;43.92;98096.28;4480866;31;34916;-87
2022/01/09 12:42:46;;;;;;;;;;;;;;;6.28;42.14;98095.63;4481368;32;33726;-87
2022/01/09 12:45:19;;;;;;;;;;;;;;;4.65;45.06;98102.44;4481564;32;33887;-86
2022/01/09 12:47:47;;;;;;;;;;;;;;;5.38;44.33;98084.91;4480118;32;34339;-88
2022/01/09 12:50:14;;;;;;;;;;;;;;;5.42;44.13;98081.53;4483903;32;34101;-88
2022/01/09 12:52:42;;;;;;;;;;;;;;;5.40;44.60;98084.91;4482601;32;33431;-88
2022/01/09 12:55:11;;;;;;;;;;;;;;;4.53;45.49;98089.38;4482972;32;35210;-90
2022/01/09 12:57:58;;;;;;;;;;;;;;;5.40;44.50;98090.06;4480782;32;34249;-89
2022/01/09 13:00:27;;;;;;;;;;;;;;;5.66;43.43;98095.59;4480335;32;79013;-89
2022/01/09 13:02:55;;;;;;;;;;;;;;;5.87;43.21;98085.59;4482928;32;33277;-89
2022/01/09 13:05:26;;;;;;;;;;;;;;;5.49;43.89;98087.59;4483604;32;34740;-87
2022/01/09 13:08:00;;;;;;;;;;;;;;;5.29;43.84;98087.31;4483963;32;34411;-87
2022/01/09 13:10:31;;;;;;;;;;;;;;;4.83;45.08;98092.50;4482082;32;34967;-89